createdAt,value
2023-04-01T00:00:21.450Z,9.60
2023-04-01T00:04:41.425Z,9.60
2023-04-01T00:09:00.524Z,9.60
2023-04-01T00:13:20.799Z,9.60
2023-04-01T00:17:38.585Z,9.60
2023-04-01T00:21:56.330Z,9.50
2023-04-01T00:26:19.939Z,9.50
2023-04-01T00:30:41.612Z,9.50
2023-04-01T00:35:00.586Z,9.50
2023-04-01T00:39:17.901Z,9.40
2023-04-01T00:43:37.486Z,9.40
2023-04-01T00:47:57.415Z,9.30
2023-04-01T00:52:18.633Z,9.40
2023-04-01T00:56:40.674Z,9.30
2023-04-01T01:01:02.809Z,9.30
2023-04-01T01:05:34.138Z,9.30
2023-04-01T01:10:03.711Z,9.30
2023-04-01T01:14:36.430Z,9.30
2023-04-01T01:19:04.025Z,9.20
2023-04-01T01:23:49.265Z,9.20
2023-04-01T01:28:27.934Z,9.30
2023-04-01T01:33:21.907Z,9.30
2023-04-01T01:37:43.149Z,9.30
2023-04-01T01:42:06.388Z,9.30
2023-04-01T01:46:28.117Z,9.30
2023-04-01T01:50:47.748Z,9.30
2023-04-01T01:55:28.645Z,9.30
2023-04-01T01:59:49.759Z,9.30
2023-04-01T02:04:16.575Z,9.30
2023-04-01T02:08:39.692Z,9.40
2023-04-01T02:13:06.367Z,9.30
2023-04-01T02:17:27.562Z,9.40
2023-04-01T02:21:46.423Z,9.30
2023-04-01T02:26:08.275Z,9.40
2023-04-01T02:30:30.864Z,9.40
2023-04-01T02:34:48.987Z,9.40
2023-04-01T02:39:10.633Z,9.40
2023-04-01T02:43:30.857Z,9.40
2023-04-01T02:47:50.044Z,9.40
2023-04-01T02:52:09.718Z,9.40
2023-04-01T02:56:28.093Z,9.40
2023-04-01T03:00:45.930Z,9.40
2023-04-01T03:05:06.536Z,9.40
2023-04-01T03:09:25.039Z,9.40
2023-04-01T03:13:43.084Z,9.40
2023-04-01T03:18:01.160Z,9.40
2023-04-01T03:22:22.070Z,9.40
2023-04-01T03:26:40.311Z,9.50
2023-04-01T03:30:58.340Z,9.40
2023-04-01T03:35:16.684Z,9.50
2023-04-01T03:39:36.012Z,9.40
2023-04-01T03:43:56.106Z,9.40
2023-04-01T03:48:13.648Z,9.40
2023-04-01T03:52:31.730Z,9.40
2023-04-01T03:56:51.376Z,9.40
2023-04-01T04:01:19.529Z,9.30
2023-04-01T04:05:38.333Z,9.30
2023-04-01T04:09:56.236Z,9.30
2023-04-01T04:14:16.985Z,9.30
2023-04-01T04:18:38.877Z,9.20
2023-04-01T04:22:56.539Z,9.20
2023-04-01T04:27:14.791Z,9.10
2023-04-01T04:31:58.718Z,9.00
2023-04-01T04:36:18.462Z,9.00
2023-04-01T04:40:38.732Z,9.00
2023-04-01T04:44:57.516Z,8.90
2023-04-01T04:49:17.120Z,8.90
2023-04-01T04:53:36.763Z,8.90
2023-04-01T04:57:54.884Z,8.90
2023-04-01T05:02:13.310Z,8.90
2023-04-01T05:06:32.991Z,8.90
2023-04-01T05:10:52.118Z,9.00
2023-04-01T05:15:11.311Z,9.00
2023-04-01T05:19:31.327Z,9.00
2023-04-01T05:23:50.672Z,9.00
2023-04-01T05:28:10.523Z,9.00
2023-04-01T05:32:28.630Z,9.00
2023-04-01T05:36:47.826Z,9.10
2023-04-01T05:41:09.320Z,9.10
2023-04-01T05:45:32.220Z,9.20
2023-04-01T05:50:17.623Z,9.20
2023-04-01T05:54:35.984Z,9.30
2023-04-01T05:58:56.840Z,9.40
2023-04-01T06:03:18.130Z,9.50
2023-04-01T06:07:35.779Z,9.50
2023-04-01T06:12:29.372Z,9.60
2023-04-01T06:17:09.045Z,9.60
2023-04-01T06:21:48.024Z,9.60
2023-04-01T06:26:26.922Z,9.70
2023-04-01T06:30:47.045Z,9.70
2023-04-01T06:35:37.921Z,9.80
2023-04-01T06:40:25.186Z,9.80
2023-04-01T06:44:57.669Z,9.90
2023-04-01T06:49:46.824Z,10.00
2023-04-01T06:54:32.299Z,10.10
2023-04-01T06:59:22.965Z,10.30
2023-04-01T07:03:51.653Z,10.30
2023-04-01T07:08:15.756Z,10.50
2023-04-01T07:12:45.237Z,10.60
2023-04-01T07:17:28.379Z,10.70
2023-04-01T07:21:50.461Z,10.80
2023-04-01T07:26:21.812Z,11.00
2023-04-01T07:31:12.970Z,11.10
2023-04-01T07:35:36.421Z,11.20
2023-04-01T07:40:04.426Z,11.30
2023-04-01T07:44:37.528Z,11.40
2023-04-01T07:49:00.564Z,11.50
2023-04-01T07:53:28.978Z,11.70
2023-04-01T07:57:58.294Z,11.80
2023-04-01T08:02:30.416Z,11.80
2023-04-01T08:07:01.329Z,11.90
2023-04-01T08:11:33.555Z,12.00
2023-04-01T08:16:19.516Z,12.20
2023-04-01T08:20:49.157Z,12.40
2023-04-01T08:25:15.857Z,12.60
2023-04-01T08:29:42.405Z,12.70
2023-04-01T08:34:05.726Z,12.70
2023-04-01T08:38:31.499Z,12.70
2023-04-01T08:43:09.179Z,12.60
2023-04-01T08:47:54.966Z,12.50
2023-04-01T08:52:26.859Z,12.50
2023-04-01T08:56:57.619Z,12.50
2023-04-01T09:01:35.590Z,12.60
2023-04-01T09:06:29.017Z,12.70
2023-04-01T09:11:07.948Z,12.80
2023-04-01T09:16:22.751Z,12.80
2023-04-01T09:20:58.783Z,13.00
2023-04-01T09:25:48.619Z,13.10
2023-04-01T09:30:40.548Z,13.30
2023-04-01T09:35:02.825Z,13.40
2023-04-01T09:39:40.011Z,13.50
2023-04-01T09:44:04.878Z,13.60
2023-04-01T09:48:53.929Z,13.70
2023-04-01T09:53:30.464Z,13.70
2023-04-01T09:58:16.822Z,13.80
2023-04-01T10:03:35.817Z,13.70
2023-04-01T10:08:38.055Z,13.80
2023-04-01T10:13:33.425Z,13.90
2023-04-01T10:18:37.300Z,13.90
2023-04-01T10:23:24.188Z,14.00
2023-04-01T10:28:01.851Z,14.00
2023-04-01T10:33:29.945Z,13.80
2023-04-01T10:38:22.240Z,13.50
2023-04-01T10:43:35.218Z,13.30
2023-04-01T10:48:19.510Z,13.20
2023-04-01T10:53:07.354Z,13.20
2023-04-01T10:57:48.807Z,13.20
2023-04-01T11:03:02.594Z,13.30
2023-04-01T11:08:36.990Z,13.50
2023-04-01T11:13:35.862Z,13.50
2023-04-01T11:18:46.619Z,13.50
2023-04-01T11:23:31.119Z,13.50
2023-04-01T11:28:09.764Z,13.50
2023-04-01T11:33:06.285Z,13.60
2023-04-01T11:38:11.932Z,13.70
2023-04-01T11:43:32.803Z,13.60
2023-04-01T11:49:05.012Z,13.60
2023-04-01T11:54:12.640Z,13.50
2023-04-01T11:59:44.414Z,13.40
2023-04-01T12:04:55.807Z,13.50
2023-04-01T12:10:01.322Z,13.50
2023-04-01T12:15:12.108Z,13.60
2023-04-01T12:20:25.869Z,13.50
2023-04-01T12:25:38.790Z,13.40
2023-04-01T12:30:55.811Z,13.30
2023-04-01T12:36:02.655Z,13.20
2023-04-01T21:12:04.421Z,7.80
2023-04-01T21:17:10.558Z,8.00
2023-04-01T21:22:08.222Z,8.00
2023-04-01T21:27:13.881Z,7.90
2023-04-01T21:31:41.854Z,7.70
2023-04-01T21:36:12.019Z,7.50
2023-04-01T21:41:05.013Z,7.40
2023-04-01T21:45:40.450Z,7.40
2023-04-01T21:50:43.881Z,7.20
2023-04-01T21:55:48.528Z,7.20
2023-04-01T22:06:31.610Z,7.00
2023-04-01T22:11:00.069Z,6.90
2023-04-01T22:15:26.395Z,6.80
2023-04-01T22:19:57.622Z,6.80
2023-04-01T22:24:22.291Z,6.70
2023-04-01T22:28:47.079Z,6.60
2023-04-01T22:33:09.124Z,6.50
2023-04-01T22:37:34.973Z,6.40
2023-04-01T22:42:04.504Z,6.30
2023-04-01T22:46:40.019Z,6.20
2023-04-01T22:51:07.905Z,6.00
2023-04-01T22:55:30.373Z,6.00
2023-04-01T22:59:55.056Z,5.90
2023-04-01T23:04:19.058Z,5.80
2023-04-01T23:09:03.629Z,5.80
2023-04-01T23:13:26.363Z,5.70
2023-04-01T23:18:06.803Z,5.60
2023-04-01T23:22:32.254Z,5.50
2023-04-01T23:26:55.580Z,5.50
2023-04-01T23:31:40.836Z,5.40
2023-04-01T23:36:06.973Z,5.40
2023-04-01T23:40:27.507Z,5.40
2023-04-01T23:44:45.928Z,5.30
2023-04-01T23:49:04.667Z,5.30
2023-04-01T23:53:28.538Z,5.30
2023-04-01T23:58:08.977Z,5.20
